sensor_id;sensor_type;location;lat;lon;timestamp;temperature;humidity
33717;DHT22;20046;50.746;7.072;2024-01-16T00:01:56;1.30;99.90
33717;DHT22;20046;50.746;7.072;2024-01-16T00:04:22;1.30;99.90
33717;DHT22;20046;50.746;7.072;2024-01-16T00:06:48;1.30;99.90
33717;DHT22;20046;50.746;7.072;2024-01-16T00:09:13;1.30;99.90
33717;DHT22;20046;50.746;7.072;2024-01-16T00:11:43;1.30;99.90
33717;DHT22;20046;50.746;7.072;2024-01-16T00:14:08;1.40;99.90
33717;DHT22;20046;50.746;7.072;2024-01-16T00:16:41;1.40;99.90
33717;DHT22;20046;50.746;7.072;2024-01-16T00:19:06;1.40;99.90
33717;DHT22;20046;50.746;7.072;2024-01-16T00:21:32;1.40;99.90
33717;DHT22;20046;50.746;7.072;2024-01-16T00:23:57;1.50;99.90
33717;DHT22;20046;50.746;7.072;2024-01-16T00:26:23;1.50;99.90
33717;DHT22;20046;50.746;7.072;2024-01-16T00:28:49;1.50;99.90
33717;DHT22;20046;50.746;7.072;2024-01-16T00:31:14;1.50;99.90
33717;DHT22;20046;50.746;7.072;2024-01-16T00:33:40;1.50;99.90
33717;DHT22;20046;50.746;7.072;2024-01-16T00:36:06;1.50;99.90
33717;DHT22;20046;50.746;7.072;2024-01-16T00:38:34;1.50;99.90
33717;DHT22;20046;50.746;7.072;2024-01-16T00:41:00;1.50;99.90
33717;DHT22;20046;50.746;7.072;2024-01-16T00:43:26;1.60;99.90
33717;DHT22;20046;50.746;7.072;2024-01-16T00:45:51;1.60;99.90
33717;DHT22;20046;50.746;7.072;2024-01-16T00:48:17;1.60;99.90
33717;DHT22;20046;50.746;7.072;2024-01-16T00:50:44;1.50;99.90
33717;DHT22;20046;50.746;7.072;2024-01-16T00:53:11;1.50;99.90
33717;DHT22;20046;50.746;7.072;2024-01-16T00:55:37;1.50;99.90
33717;DHT22;20046;50.746;7.072;2024-01-16T00:58:02;1.50;99.90
33717;DHT22;20046;50.746;7.072;2024-01-16T01:00:28;1.50;99.90
33717;DHT22;20046;50.746;7.072;2024-01-16T01:02:56;1.50;99.90
33717;DHT22;20046;50.746;7.072;2024-01-16T01:05:22;1.50;99.90
33717;DHT22;20046;50.746;7.072;2024-01-16T01:07:54;1.40;99.90
33717;DHT22;20046;50.746;7.072;2024-01-16T01:10:20;1.40;99.90
33717;DHT22;20046;50.746;7.072;2024-01-16T01:12:45;1.40;99.90
33717;DHT22;20046;50.746;7.072;2024-01-16T01:15:11;1.40;99.90
33717;DHT22;20046;50.746;7.072;2024-01-16T01:17:37;1.40;99.90
33717;DHT22;20046;50.746;7.072;2024-01-16T01:20:03;1.50;99.90
33717;DHT22;20046;50.746;7.072;2024-01-16T01:22:29;1.50;99.90
33717;DHT22;20046;50.746;7.072;2024-01-16T01:24:54;1.50;99.90
33717;DHT22;20046;50.746;7.072;2024-01-16T01:27:20;1.50;99.90
33717;DHT22;20046;50.746;7.072;2024-01-16T01:29:45;1.50;99.90
33717;DHT22;20046;50.746;7.072;2024-01-16T01:32:11;1.50;99.90
33717;DHT22;20046;50.746;7.072;2024-01-16T01:34:37;1.50;99.90
33717;DHT22;20046;50.746;7.072;2024-01-16T01:37:03;1.50;99.90
33717;DHT22;20046;50.746;7.072;2024-01-16T01:39:29;1.50;99.90
33717;DHT22;20046;50.746;7.072;2024-01-16T01:41:55;1.50;99.90
33717;DHT22;20046;50.746;7.072;2024-01-16T01:44:21;1.50;99.90
33717;DHT22;20046;50.746;7.072;2024-01-16T01:46:46;1.50;99.90
33717;DHT22;20046;50.746;7.072;2024-01-16T01:49:13;1.50;99.90
33717;DHT22;20046;50.746;7.072;2024-01-16T01:51:40;1.50;99.90
33717;DHT22;20046;50.746;7.072;2024-01-16T01:54:07;1.50;99.90
33717;DHT22;20046;50.746;7.072;2024-01-16T01:56:33;1.50;99.90
33717;DHT22;20046;50.746;7.072;2024-01-16T01:58:59;1.50;99.90
33717;DHT22;20046;50.746;7.072;2024-01-16T02:01:26;1.50;99.90
33717;DHT22;20046;50.746;7.072;2024-01-16T02:03:55;1.50;99.90
33717;DHT22;20046;50.746;7.072;2024-01-16T02:06:20;1.50;99.90
33717;DHT22;20046;50.746;7.072;2024-01-16T02:08:46;1.50;99.90
33717;DHT22;20046;50.746;7.072;2024-01-16T02:11:11;1.50;99.90
33717;DHT22;20046;50.746;7.072;2024-01-16T02:13:37;1.50;99.90
33717;DHT22;20046;50.746;7.072;2024-01-16T02:16:03;1.50;99.90
33717;DHT22;20046;50.746;7.072;2024-01-16T02:18:29;1.50;99.90
33717;DHT22;20046;50.746;7.072;2024-01-16T02:20:59;1.40;99.90
33717;DHT22;20046;50.746;7.072;2024-01-16T02:23:27;1.40;99.90
33717;DHT22;20046;50.746;7.072;2024-01-16T02:25:53;1.30;99.90
33717;DHT22;20046;50.746;7.072;2024-01-16T02:28:19;1.30;99.90
33717;DHT22;20046;50.746;7.072;2024-01-16T02:30:44;1.30;99.90
33717;DHT22;20046;50.746;7.072;2024-01-16T02:33:10;1.20;99.90
33717;DHT22;20046;50.746;7.072;2024-01-16T02:35:36;1.20;99.90
33717;DHT22;20046;50.746;7.072;2024-01-16T02:38:01;1.20;99.90
33717;DHT22;20046;50.746;7.072;2024-01-16T02:40:27;1.20;99.90
33717;DHT22;20046;50.746;7.072;2024-01-16T02:42:52;1.10;99.90
33717;DHT22;20046;50.746;7.072;2024-01-16T02:45:18;1.10;99.90
33717;DHT22;20046;50.746;7.072;2024-01-16T02:47:43;1.20;99.90
33717;DHT22;20046;50.746;7.072;2024-01-16T02:50:09;1.10;99.90
33717;DHT22;20046;50.746;7.072;2024-01-16T02:52:35;1.10;99.90
33717;DHT22;20046;50.746;7.072;2024-01-16T02:55:01;1.10;99.90
33717;DHT22;20046;50.746;7.072;2024-01-16T02:57:26;1.10;99.90
33717;DHT22;20046;50.746;7.072;2024-01-16T02:59:52;1.10;99.90
33717;DHT22;20046;50.746;7.072;2024-01-16T03:02:18;1.10;99.90
33717;DHT22;20046;50.746;7.072;2024-01-16T03:04:43;1.20;99.90
33717;DHT22;20046;50.746;7.072;2024-01-16T03:07:09;1.20;99.90
33717;DHT22;20046;50.746;7.072;2024-01-16T03:09:34;1.20;99.90
33717;DHT22;20046;50.746;7.072;2024-01-16T03:12:00;1.20;99.90
33717;DHT22;20046;50.746;7.072;2024-01-16T03:14:25;1.30;99.90
33717;DHT22;20046;50.746;7.072;2024-01-16T03:16:51;1.20;99.90
33717;DHT22;20046;50.746;7.072;2024-01-16T03:19:16;1.20;99.90
33717;DHT22;20046;50.746;7.072;2024-01-16T03:21:42;1.20;99.90
33717;DHT22;20046;50.746;7.072;2024-01-16T03:24:08;1.20;99.90
33717;DHT22;20046;50.746;7.072;2024-01-16T03:26:36;1.20;99.90
33717;DHT22;20046;50.746;7.072;2024-01-16T03:29:02;1.20;99.90
33717;DHT22;20046;50.746;7.072;2024-01-16T03:31:28;1.20;99.90
33717;DHT22;20046;50.746;7.072;2024-01-16T03:33:54;1.20;99.90
33717;DHT22;20046;50.746;7.072;2024-01-16T03:36:19;1.30;99.90
33717;DHT22;20046;50.746;7.072;2024-01-16T03:38:45;1.30;99.90
33717;DHT22;20046;50.746;7.072;2024-01-16T03:41:11;1.30;99.90
33717;DHT22;20046;50.746;7.072;2024-01-16T03:43:37;1.30;99.90
33717;DHT22;20046;50.746;7.072;2024-01-16T03:46:03;1.30;99.90
33717;DHT22;20046;50.746;7.072;2024-01-16T03:48:29;1.30;99.90
33717;DHT22;20046;50.746;7.072;2024-01-16T03:50:55;1.30;99.90
33717;DHT22;20046;50.746;7.072;2024-01-16T03:53:21;1.30;99.90
33717;DHT22;20046;50.746;7.072;2024-01-16T03:55:47;1.30;99.90
33717;DHT22;20046;50.746;7.072;2024-01-16T03:58:13;1.30;99.90
33717;DHT22;20046;50.746;7.072;2024-01-16T04:00:38;1.30;99.90
33717;DHT22;20046;50.746;7.072;2024-01-16T04:03:04;1.30;99.90
33717;DHT22;20046;50.746;7.072;2024-01-16T04:05:30;1.20;99.90
33717;DHT22;20046;50.746;7.072;2024-01-16T04:07:57;1.20;99.90
33717;DHT22;20046;50.746;7.072;2024-01-16T04:10:22;1.20;99.90
33717;DHT22;20046;50.746;7.072;2024-01-16T04:12:48;1.10;99.90
33717;DHT22;20046;50.746;7.072;2024-01-16T04:15:13;1.10;99.90
33717;DHT22;20046;50.746;7.072;2024-01-16T04:17:39;1.00;99.90
33717;DHT22;20046;50.746;7.072;2024-01-16T04:20:05;1.00;99.90
33717;DHT22;20046;50.746;7.072;2024-01-16T04:22:32;1.00;99.90
33717;DHT22;20046;50.746;7.072;2024-01-16T04:24:58;1.00;99.90
33717;DHT22;20046;50.746;7.072;2024-01-16T04:27:24;1.00;99.90
33717;DHT22;20046;50.746;7.072;2024-01-16T04:29:51;1.00;99.90
33717;DHT22;20046;50.746;7.072;2024-01-16T04:32:16;0.90;99.90
33717;DHT22;20046;50.746;7.072;2024-01-16T04:34:42;0.90;99.90
33717;DHT22;20046;50.746;7.072;2024-01-16T04:37:07;0.90;99.90
33717;DHT22;20046;50.746;7.072;2024-01-16T04:39:33;0.90;99.90
33717;DHT22;20046;50.746;7.072;2024-01-16T04:41:59;0.90;99.90
33717;DHT22;20046;50.746;7.072;2024-01-16T04:44:24;0.90;99.90
33717;DHT22;20046;50.746;7.072;2024-01-16T04:46:50;0.90;99.90
33717;DHT22;20046;50.746;7.072;2024-01-16T04:49:15;0.90;99.90
33717;DHT22;20046;50.746;7.072;2024-01-16T04:51:41;0.90;99.90
33717;DHT22;20046;50.746;7.072;2024-01-16T04:54:07;0.90;99.90
33717;DHT22;20046;50.746;7.072;2024-01-16T04:56:32;1.00;99.90
33717;DHT22;20046;50.746;7.072;2024-01-16T04:58:58;1.00;99.90
33717;DHT22;20046;50.746;7.072;2024-01-16T05:01:23;1.00;99.90
33717;DHT22;20046;50.746;7.072;2024-01-16T05:03:50;1.00;99.90
33717;DHT22;20046;50.746;7.072;2024-01-16T05:06:16;1.00;99.90
33717;DHT22;20046;50.746;7.072;2024-01-16T05:08:42;1.00;99.90
33717;DHT22;20046;50.746;7.072;2024-01-16T05:11:08;1.00;99.90
33717;DHT22;20046;50.746;7.072;2024-01-16T05:13:34;1.00;99.90
33717;DHT22;20046;50.746;7.072;2024-01-16T05:16:00;1.00;99.90
33717;DHT22;20046;50.746;7.072;2024-01-16T05:18:26;1.00;99.90
33717;DHT22;20046;50.746;7.072;2024-01-16T05:20:51;1.00;99.90
33717;DHT22;20046;50.746;7.072;2024-01-16T05:23:17;1.00;99.90
33717;DHT22;20046;50.746;7.072;2024-01-16T05:25:43;1.00;99.90
33717;DHT22;20046;50.746;7.072;2024-01-16T05:28:09;0.90;99.90
33717;DHT22;20046;50.746;7.072;2024-01-16T05:30:35;1.00;99.90
33717;DHT22;20046;50.746;7.072;2024-01-16T05:33:01;1.00;99.90
33717;DHT22;20046;50.746;7.072;2024-01-16T05:35:27;1.00;99.90
33717;DHT22;20046;50.746;7.072;2024-01-16T05:37:57;1.00;99.90
33717;DHT22;20046;50.746;7.072;2024-01-16T05:40:22;1.00;99.90
33717;DHT22;20046;50.746;7.072;2024-01-16T05:42:51;0.90;99.90
33717;DHT22;20046;50.746;7.072;2024-01-16T05:45:17;0.90;99.90
33717;DHT22;20046;50.746;7.072;2024-01-16T05:47:43;0.90;99.90
33717;DHT22;20046;50.746;7.072;2024-01-16T05:50:08;0.90;99.90
33717;DHT22;20046;50.746;7.072;2024-01-16T05:52:35;0.90;99.90
33717;DHT22;20046;50.746;7.072;2024-01-16T05:55:01;0.90;99.90
33717;DHT22;20046;50.746;7.072;2024-01-16T05:57:30;0.90;99.90
33717;DHT22;20046;50.746;7.072;2024-01-16T05:59:59;0.90;99.90
33717;DHT22;20046;50.746;7.072;2024-01-16T06:02:28;0.90;99.90
33717;DHT22;20046;50.746;7.072;2024-01-16T06:04:54;0.90;99.90
33717;DHT22;20046;50.746;7.072;2024-01-16T06:07:20;0.90;99.90
33717;DHT22;20046;50.746;7.072;2024-01-16T06:09:45;0.90;99.90
33717;DHT22;20046;50.746;7.072;2024-01-16T06:12:11;0.90;99.90
33717;DHT22;20046;50.746;7.072;2024-01-16T06:14:37;1.00;99.90
33717;DHT22;20046;50.746;7.072;2024-01-16T06:17:03;1.00;99.90
33717;DHT22;20046;50.746;7.072;2024-01-16T06:19:31;1.00;99.90
33717;DHT22;20046;50.746;7.072;2024-01-16T06:21:57;1.00;99.90
33717;DHT22;20046;50.746;7.072;2024-01-16T06:24:23;1.00;99.90
33717;DHT22;20046;50.746;7.072;2024-01-16T06:26:49;1.00;99.90
33717;DHT22;20046;50.746;7.072;2024-01-16T06:29:14;1.10;99.90
33717;DHT22;20046;50.746;7.072;2024-01-16T06:31:40;1.10;99.90
33717;DHT22;20046;50.746;7.072;2024-01-16T06:34:06;1.00;99.90
33717;DHT22;20046;50.746;7.072;2024-01-16T06:36:31;1.00;99.90
33717;DHT22;20046;50.746;7.072;2024-01-16T06:38:57;1.00;99.90
33717;DHT22;20046;50.746;7.072;2024-01-16T06:41:23;1.00;99.90
33717;DHT22;20046;50.746;7.072;2024-01-16T06:43:48;1.00;99.90
33717;DHT22;20046;50.746;7.072;2024-01-16T06:46:14;1.00;99.90
33717;DHT22;20046;50.746;7.072;2024-01-16T06:48:40;1.00;99.90
33717;DHT22;20046;50.746;7.072;2024-01-16T06:51:05;1.00;99.90
33717;DHT22;20046;50.746;7.072;2024-01-16T06:53:33;1.00;99.90
33717;DHT22;20046;50.746;7.072;2024-01-16T06:55:58;0.90;99.90
33717;DHT22;20046;50.746;7.072;2024-01-16T06:58:24;0.90;99.90
33717;DHT22;20046;50.746;7.072;2024-01-16T07:00:49;0.90;99.90
33717;DHT22;20046;50.746;7.072;2024-01-16T07:03:15;1.00;99.90
33717;DHT22;20046;50.746;7.072;2024-01-16T07:05:41;1.00;99.90
33717;DHT22;20046;50.746;7.072;2024-01-16T07:08:07;1.00;99.90
33717;DHT22;20046;50.746;7.072;2024-01-16T07:10:33;1.00;99.90
33717;DHT22;20046;50.746;7.072;2024-01-16T07:12:59;1.10;99.90
33717;DHT22;20046;50.746;7.072;2024-01-16T07:15:25;1.10;99.90
33717;DHT22;20046;50.746;7.072;2024-01-16T07:17:51;1.10;99.90
33717;DHT22;20046;50.746;7.072;2024-01-16T07:20:16;1.10;99.90
33717;DHT22;20046;50.746;7.072;2024-01-16T07:22:42;1.10;99.90
33717;DHT22;20046;50.746;7.072;2024-01-16T07:25:08;1.10;99.90
33717;DHT22;20046;50.746;7.072;2024-01-16T07:27:33;1.10;99.90
33717;DHT22;20046;50.746;7.072;2024-01-16T07:30:00;1.10;99.90
33717;DHT22;20046;50.746;7.072;2024-01-16T07:32:26;1.00;99.90
33717;DHT22;20046;50.746;7.072;2024-01-16T07:34:51;1.00;99.90
33717;DHT22;20046;50.746;7.072;2024-01-16T07:37:18;0.90;99.90
33717;DHT22;20046;50.746;7.072;2024-01-16T07:39:44;0.90;99.90
33717;DHT22;20046;50.746;7.072;2024-01-16T07:42:09;0.90;99.90
33717;DHT22;20046;50.746;7.072;2024-01-16T07:44:35;0.80;99.90
33717;DHT22;20046;50.746;7.072;2024-01-16T07:47:00;0.80;99.90
33717;DHT22;20046;50.746;7.072;2024-01-16T07:49:26;0.80;99.90
33717;DHT22;20046;50.746;7.072;2024-01-16T07:51:52;0.80;99.90
33717;DHT22;20046;50.746;7.072;2024-01-16T07:54:17;0.80;99.90
33717;DHT22;20046;50.746;7.072;2024-01-16T07:56:43;0.70;99.90
33717;DHT22;20046;50.746;7.072;2024-01-16T07:59:08;0.70;99.90
33717;DHT22;20046;50.746;7.072;2024-01-16T08:01:34;0.80;99.90
33717;DHT22;20046;50.746;7.072;2024-01-16T08:03:59;0.70;99.90
33717;DHT22;20046;50.746;7.072;2024-01-16T08:06:26;0.70;99.90
33717;DHT22;20046;50.746;7.072;2024-01-16T08:08:51;0.80;99.90
33717;DHT22;20046;50.746;7.072;2024-01-16T08:11:18;0.80;99.90
33717;DHT22;20046;50.746;7.072;2024-01-16T08:13:44;0.70;99.90
33717;DHT22;20046;50.746;7.072;2024-01-16T08:16:09;0.80;99.90
33717;DHT22;20046;50.746;7.072;2024-01-16T08:18:35;0.80;99.90
33717;DHT22;20046;50.746;7.072;2024-01-16T08:21:00;0.80;99.90
33717;DHT22;20046;50.746;7.072;2024-01-16T08:23:26;0.80;99.90
33717;DHT22;20046;50.746;7.072;2024-01-16T08:25:52;0.90;99.90
33717;DHT22;20046;50.746;7.072;2024-01-16T08:28:18;0.90;99.90
33717;DHT22;20046;50.746;7.072;2024-01-16T08:30:44;0.90;99.90
33717;DHT22;20046;50.746;7.072;2024-01-16T08:33:11;0.90;99.90
33717;DHT22;20046;50.746;7.072;2024-01-16T08:35:37;0.90;99.90
33717;DHT22;20046;50.746;7.072;2024-01-16T08:38:03;0.80;99.90
33717;DHT22;20046;50.746;7.072;2024-01-16T08:40:28;0.80;99.90
33717;DHT22;20046;50.746;7.072;2024-01-16T08:42:54;0.80;99.90
33717;DHT22;20046;50.746;7.072;2024-01-16T08:45:22;0.80;99.90
33717;DHT22;20046;50.746;7.072;2024-01-16T08:47:48;0.80;99.90
33717;DHT22;20046;50.746;7.072;2024-01-16T08:50:15;0.90;99.90
33717;DHT22;20046;50.746;7.072;2024-01-16T08:52:40;1.20;99.90
33717;DHT22;20046;50.746;7.072;2024-01-16T08:55:08;1.60;99.90
33717;DHT22;20046;50.746;7.072;2024-01-16T08:57:34;2.00;99.90
33717;DHT22;20046;50.746;7.072;2024-01-16T09:00:00;2.30;99.90
33717;DHT22;20046;50.746;7.072;2024-01-16T09:02:26;2.60;99.90
33717;DHT22;20046;50.746;7.072;2024-01-16T09:04:54;2.90;99.90
33717;DHT22;20046;50.746;7.072;2024-01-16T09:07:20;2.80;99.90
33717;DHT22;20046;50.746;7.072;2024-01-16T09:09:46;2.70;99.90
33717;DHT22;20046;50.746;7.072;2024-01-16T09:12:11;2.80;99.90
33717;DHT22;20046;50.746;7.072;2024-01-16T09:14:37;2.90;99.90
33717;DHT22;20046;50.746;7.072;2024-01-16T09:17:03;2.90;99.90
33717;DHT22;20046;50.746;7.072;2024-01-16T09:19:29;3.10;99.90
33717;DHT22;20046;50.746;7.072;2024-01-16T09:21:55;3.40;99.90
33717;DHT22;20046;50.746;7.072;2024-01-16T09:24:21;3.60;99.90
33717;DHT22;20046;50.746;7.072;2024-01-16T09:26:46;3.70;99.90
33717;DHT22;20046;50.746;7.072;2024-01-16T09:29:12;3.70;99.90
33717;DHT22;20046;50.746;7.072;2024-01-16T09:31:40;3.90;99.90
33717;DHT22;20046;50.746;7.072;2024-01-16T09:34:06;4.30;99.90
33717;DHT22;20046;50.746;7.072;2024-01-16T09:36:32;4.40;99.90
33717;DHT22;20046;50.746;7.072;2024-01-16T09:38:57;4.20;99.90
33717;DHT22;20046;50.746;7.072;2024-01-16T09:41:23;4.00;99.90
33717;DHT22;20046;50.746;7.072;2024-01-16T09:43:49;3.70;99.90
33717;DHT22;20046;50.746;7.072;2024-01-16T09:46:17;3.50;99.90
33717;DHT22;20046;50.746;7.072;2024-01-16T09:48:46;3.40;99.90
33717;DHT22;20046;50.746;7.072;2024-01-16T09:51:12;3.30;99.90
33717;DHT22;20046;50.746;7.072;2024-01-16T09:53:43;3.30;99.90
33717;DHT22;20046;50.746;7.072;2024-01-16T09:56:15;3.40;99.90
33717;DHT22;20046;50.746;7.072;2024-01-16T09:58:43;3.60;99.90
33717;DHT22;20046;50.746;7.072;2024-01-16T10:01:11;3.90;99.90
33717;DHT22;20046;50.746;7.072;2024-01-16T10:03:38;4.40;99.90
33717;DHT22;20046;50.746;7.072;2024-01-16T10:06:05;4.80;99.90
33717;DHT22;20046;50.746;7.072;2024-01-16T10:08:31;5.20;99.90
33717;DHT22;20046;50.746;7.072;2024-01-16T10:10:58;5.40;99.90
33717;DHT22;20046;50.746;7.072;2024-01-16T10:13:23;5.40;99.90
33717;DHT22;20046;50.746;7.072;2024-01-16T10:15:53;5.30;99.90
33717;DHT22;20046;50.746;7.072;2024-01-16T10:18:29;5.10;99.90
33717;DHT22;20046;50.746;7.072;2024-01-16T10:20:56;4.90;99.90
33717;DHT22;20046;50.746;7.072;2024-01-16T10:23:25;4.50;99.90
33717;DHT22;20046;50.746;7.072;2024-01-16T10:26:11;4.20;99.90
33717;DHT22;20046;50.746;7.072;2024-01-16T10:28:39;3.90;99.90
33717;DHT22;20046;50.746;7.072;2024-01-16T10:31:06;3.70;99.90
33717;DHT22;20046;50.746;7.072;2024-01-16T10:33:33;3.50;99.90
33717;DHT22;20046;50.746;7.072;2024-01-16T10:36:08;3.40;99.90
33717;DHT22;20046;50.746;7.072;2024-01-16T10:38:36;3.30;99.90
33717;DHT22;20046;50.746;7.072;2024-01-16T10:41:06;3.40;99.90
33717;DHT22;20046;50.746;7.072;2024-01-16T10:43:31;3.60;99.90
33717;DHT22;20046;50.746;7.072;2024-01-16T10:46:10;4.00;99.90
33717;DHT22;20046;50.746;7.072;2024-01-16T10:48:38;4.50;99.90
33717;DHT22;20046;50.746;7.072;2024-01-16T10:51:06;5.30;99.90
33717;DHT22;20046;50.746;7.072;2024-01-16T10:53:33;5.70;99.90
33717;DHT22;20046;50.746;7.072;2024-01-16T10:56:01;5.80;99.90
33717;DHT22;20046;50.746;7.072;2024-01-16T10:58:29;5.80;99.90
33717;DHT22;20046;50.746;7.072;2024-01-16T11:00:57;5.60;99.90
33717;DHT22;20046;50.746;7.072;2024-01-16T11:03:48;5.30;99.90
33717;DHT22;20046;50.746;7.072;2024-01-16T11:06:18;5.20;99.90
33717;DHT22;20046;50.746;7.072;2024-01-16T11:08:47;5.30;99.90
33717;DHT22;20046;50.746;7.072;2024-01-16T11:11:14;5.70;99.90
33717;DHT22;20046;50.746;7.072;2024-01-16T11:13:41;6.70;99.90
33717;DHT22;20046;50.746;7.072;2024-01-16T11:16:10;7.90;99.90
33717;DHT22;20046;50.746;7.072;2024-01-16T11:18:36;9.10;99.90
33717;DHT22;20046;50.746;7.072;2024-01-16T11:21:10;9.70;99.90
33717;DHT22;20046;50.746;7.072;2024-01-16T11:23:37;10.00;99.90
33717;DHT22;20046;50.746;7.072;2024-01-16T11:26:26;10.20;99.90
33717;DHT22;20046;50.746;7.072;2024-01-16T11:28:53;10.50;99.90
33717;DHT22;20046;50.746;7.072;2024-01-16T11:31:35;11.00;99.90
33717;DHT22;20046;50.746;7.072;2024-01-16T11:34:01;11.50;97.60
33717;DHT22;20046;50.746;7.072;2024-01-16T11:36:45;11.90;97.50
33717;DHT22;20046;50.746;7.072;2024-01-16T11:39:26;12.80;96.10
33717;DHT22;20046;50.746;7.072;2024-01-16T11:41:58;13.50;94.60
33717;DHT22;20046;50.746;7.072;2024-01-16T11:44:45;13.60;92.90
33717;DHT22;20046;50.746;7.072;2024-01-16T11:47:20;12.40;92.90
33717;DHT22;20046;50.746;7.072;2024-01-16T11:49:47;11.10;93.50
33717;DHT22;20046;50.746;7.072;2024-01-16T11:52:13;9.90;94.40
33717;DHT22;20046;50.746;7.072;2024-01-16T11:54:40;9.20;95.40
33717;DHT22;20046;50.746;7.072;2024-01-16T11:57:18;9.60;96.70
33717;DHT22;20046;50.746;7.072;2024-01-16T12:00:02;11.30;95.30
33717;DHT22;20046;50.746;7.072;2024-01-16T12:05:12;13.10;91.70
33717;DHT22;20046;50.746;7.072;2024-01-16T12:07:46;13.00;91.80
33717;DHT22;20046;50.746;7.072;2024-01-16T12:10:15;13.00;91.30
33717;DHT22;20046;50.746;7.072;2024-01-16T12:12:41;13.90;90.60
33717;DHT22;20046;50.746;7.072;2024-01-16T12:15:12;14.90;90.40
33717;DHT22;20046;50.746;7.072;2024-01-16T12:17:38;15.50;86.90
33717;DHT22;20046;50.746;7.072;2024-01-16T12:20:16;16.30;84.30
33717;DHT22;20046;50.746;7.072;2024-01-16T12:22:42;16.90;82.10
33717;DHT22;20046;50.746;7.072;2024-01-16T12:25:08;17.50;78.80
33717;DHT22;20046;50.746;7.072;2024-01-16T12:27:34;17.30;77.70
33717;DHT22;20046;50.746;7.072;2024-01-16T12:30:07;17.20;76.00
33717;DHT22;20046;50.746;7.072;2024-01-16T12:32:33;16.70;75.10
33717;DHT22;20046;50.746;7.072;2024-01-16T12:34:59;16.30;74.10
33717;DHT22;20046;50.746;7.072;2024-01-16T12:37:24;16.20;75.30
33717;DHT22;20046;50.746;7.072;2024-01-16T12:39:50;16.50;73.70
33717;DHT22;20046;50.746;7.072;2024-01-16T12:42:17;16.30;71.90
33717;DHT22;20046;50.746;7.072;2024-01-16T12:44:43;16.10;71.60
33717;DHT22;20046;50.746;7.072;2024-01-16T12:47:15;14.90;72.80
33717;DHT22;20046;50.746;7.072;2024-01-16T12:49:41;14.40;73.80
33717;DHT22;20046;50.746;7.072;2024-01-16T12:52:18;14.70;74.50
33717;DHT22;20046;50.746;7.072;2024-01-16T12:54:44;14.80;74.00
33717;DHT22;20046;50.746;7.072;2024-01-16T12:57:10;15.20;73.50
33717;DHT22;20046;50.746;7.072;2024-01-16T12:59:39;15.70;73.50
33717;DHT22;20046;50.746;7.072;2024-01-16T13:02:05;16.00;72.00
33717;DHT22;20046;50.746;7.072;2024-01-16T13:04:31;16.20;72.50
33717;DHT22;20046;50.746;7.072;2024-01-16T13:07:03;16.50;71.10
33717;DHT22;20046;50.746;7.072;2024-01-16T13:09:29;16.60;71.10
33717;DHT22;20046;50.746;7.072;2024-01-16T13:11:55;16.80;70.10
33717;DHT22;20046;50.746;7.072;2024-01-16T13:14:21;16.80;69.40
33717;DHT22;20046;50.746;7.072;2024-01-16T13:16:48;17.00;69.50
33717;DHT22;20046;50.746;7.072;2024-01-16T13:19:20;17.10;69.20
33717;DHT22;20046;50.746;7.072;2024-01-16T13:21:46;17.30;67.10
33717;DHT22;20046;50.746;7.072;2024-01-16T13:24:12;16.80;66.30
33717;DHT22;20046;50.746;7.072;2024-01-16T13:26:42;16.40;67.30
33717;DHT22;20046;50.746;7.072;2024-01-16T13:29:08;15.50;67.80
33717;DHT22;20046;50.746;7.072;2024-01-16T13:31:34;14.70;68.80
33717;DHT22;20046;50.746;7.072;2024-01-16T13:34:00;13.90;70.20
33717;DHT22;20046;50.746;7.072;2024-01-16T13:36:25;13.50;71.90
33717;DHT22;20046;50.746;7.072;2024-01-16T13:38:51;12.70;71.30
33717;DHT22;20046;50.746;7.072;2024-01-16T13:41:17;11.70;73.30
33717;DHT22;20046;50.746;7.072;2024-01-16T13:43:42;11.70;74.30
33717;DHT22;20046;50.746;7.072;2024-01-16T13:46:08;11.70;74.60
33717;DHT22;20046;50.746;7.072;2024-01-16T13:48:35;11.70;74.40
33717;DHT22;20046;50.746;7.072;2024-01-16T13:51:01;10.90;75.40
33717;DHT22;20046;50.746;7.072;2024-01-16T13:53:27;9.80;76.60
33717;DHT22;20046;50.746;7.072;2024-01-16T13:55:52;8.80;78.60
33717;DHT22;20046;50.746;7.072;2024-01-16T13:58:18;7.80;80.40
33717;DHT22;20046;50.746;7.072;2024-01-16T14:00:44;7.00;83.70
33717;DHT22;20046;50.746;7.072;2024-01-16T14:03:09;6.50;84.90
33717;DHT22;20046;50.746;7.072;2024-01-16T14:05:35;6.00;86.40
33717;DHT22;20046;50.746;7.072;2024-01-16T14:08:01;5.70;87.70
33717;DHT22;20046;50.746;7.072;2024-01-16T14:10:27;5.20;88.30
33717;DHT22;20046;50.746;7.072;2024-01-16T14:12:53;5.00;89.90
33717;DHT22;20046;50.746;7.072;2024-01-16T14:15:20;4.90;90.70
33717;DHT22;20046;50.746;7.072;2024-01-16T14:17:50;5.40;91.00
33717;DHT22;20046;50.746;7.072;2024-01-16T14:20:17;6.00;90.70
33717;DHT22;20046;50.746;7.072;2024-01-16T14:22:46;6.20;90.40
33717;DHT22;20046;50.746;7.072;2024-01-16T14:25:12;6.50;89.80
33717;DHT22;20046;50.746;7.072;2024-01-16T14:27:39;6.50;88.80
33717;DHT22;20046;50.746;7.072;2024-01-16T14:30:11;6.70;87.90
33717;DHT22;20046;50.746;7.072;2024-01-16T14:32:41;6.40;87.40
33717;DHT22;20046;50.746;7.072;2024-01-16T14:35:08;6.60;88.70
33717;DHT22;20046;50.746;7.072;2024-01-16T14:37:35;7.50;87.20
33717;DHT22;20046;50.746;7.072;2024-01-16T14:40:02;7.60;86.00
33717;DHT22;20046;50.746;7.072;2024-01-16T14:42:31;7.20;86.10
33717;DHT22;20046;50.746;7.072;2024-01-16T14:44:59;6.80;86.80
33717;DHT22;20046;50.746;7.072;2024-01-16T14:47:25;6.70;87.10
33717;DHT22;20046;50.746;7.072;2024-01-16T14:49:50;6.80;87.70
33717;DHT22;20046;50.746;7.072;2024-01-16T14:52:16;6.40;88.00
33717;DHT22;20046;50.746;7.072;2024-01-16T14:54:43;5.90;87.60
33717;DHT22;20046;50.746;7.072;2024-01-16T14:57:09;5.60;88.80
33717;DHT22;20046;50.746;7.072;2024-01-16T14:59:35;5.30;89.90
33717;DHT22;20046;50.746;7.072;2024-01-16T15:02:00;5.10;90.10
33717;DHT22;20046;50.746;7.072;2024-01-16T15:04:38;4.60;90.30
33717;DHT22;20046;50.746;7.072;2024-01-16T15:07:04;4.30;91.00
33717;DHT22;20046;50.746;7.072;2024-01-16T15:09:30;4.30;91.40
33717;DHT22;20046;50.746;7.072;2024-01-16T15:11:56;4.30;91.30
33717;DHT22;20046;50.746;7.072;2024-01-16T15:14:22;4.30;91.50
33717;DHT22;20046;50.746;7.072;2024-01-16T15:16:47;4.30;91.60
33717;DHT22;20046;50.746;7.072;2024-01-16T15:19:13;4.20;91.70
33717;DHT22;20046;50.746;7.072;2024-01-16T15:21:39;4.10;91.90
33717;DHT22;20046;50.746;7.072;2024-01-16T15:24:05;3.90;92.20
33717;DHT22;20046;50.746;7.072;2024-01-16T15:26:30;3.70;92.40
33717;DHT22;20046;50.746;7.072;2024-01-16T15:28:56;3.50;92.70
33717;DHT22;20046;50.746;7.072;2024-01-16T15:31:22;3.40;93.10
33717;DHT22;20046;50.746;7.072;2024-01-16T15:33:49;3.10;93.30
33717;DHT22;20046;50.746;7.072;2024-01-16T15:36:14;2.90;93.60
33717;DHT22;20046;50.746;7.072;2024-01-16T15:38:40;2.80;94.00
33717;DHT22;20046;50.746;7.072;2024-01-16T15:41:05;2.60;94.30
33717;DHT22;20046;50.746;7.072;2024-01-16T15:43:31;2.40;94.80
33717;DHT22;20046;50.746;7.072;2024-01-16T15:45:56;2.30;95.30